createdAt,value
2019-06-26T00:01:01.533Z,71.60
2019-06-26T00:06:08.215Z,72.20
2019-06-26T00:11:14.891Z,72.20
2019-06-26T00:16:21.395Z,72.60
2019-06-26T00:21:27.888Z,73.00
2019-06-26T00:26:34.521Z,73.90
2019-06-26T00:31:41.074Z,73.60
2019-06-26T00:36:48.537Z,75.40
2019-06-26T00:41:55.290Z,75.00
2019-06-26T00:47:01.814Z,75.00
2019-06-26T00:52:08.429Z,75.80
2019-06-26T00:57:15.117Z,75.80
2019-06-26T01:02:22.084Z,76.60
2019-06-26T01:07:28.625Z,77.60
2019-06-26T01:12:35.210Z,78.40
2019-06-26T01:17:41.843Z,78.90
2019-06-26T01:22:48.354Z,79.10
2019-06-26T01:27:55.135Z,79.20
2019-06-26T01:33:01.674Z,79.30
2019-06-26T01:38:08.298Z,79.60
2019-06-26T01:43:14.777Z,81.20
2019-06-26T01:48:21.296Z,82.00
2019-06-26T01:53:27.788Z,82.10
2019-06-26T01:58:34.250Z,81.70
2019-06-26T02:03:40.751Z,82.20
2019-06-26T02:08:47.656Z,82.80
2019-06-26T02:13:54.268Z,83.90
2019-06-26T02:19:03.603Z,84.40
2019-06-26T02:24:10.093Z,85.30
2019-06-26T02:29:16.736Z,85.70
2019-06-26T02:34:23.294Z,86.00
2019-06-26T02:39:29.744Z,85.80
2019-06-26T02:44:52.019Z,84.80
2019-06-26T02:49:44.483Z,86.00
2019-06-26T02:54:52.117Z,85.60
2019-06-26T02:59:58.656Z,84.70
2019-06-26T03:05:05.625Z,85.60
2019-06-26T03:10:13.082Z,86.90
2019-06-26T03:15:19.698Z,87.00
2019-06-26T03:20:30.737Z,87.10
2019-06-26T03:25:37.316Z,87.50
2019-06-26T03:30:43.984Z,88.50
2019-06-26T03:35:50.466Z,89.50
2019-06-26T03:40:57.101Z,88.60
2019-06-26T03:46:03.750Z,89.70
2019-06-26T03:51:13.739Z,90.90
2019-06-26T03:56:18.768Z,91.60
2019-06-26T04:01:25.264Z,90.50
2019-06-26T04:06:31.904Z,86.70
2019-06-26T04:11:38.416Z,88.20
2019-06-26T04:16:45.417Z,87.60
2019-06-26T04:21:52.024Z,86.70
2019-06-26T04:26:59.510Z,77.10
2019-06-26T04:32:06.054Z,67.50
2019-06-26T04:37:12.524Z,61.00
2019-06-26T04:42:19.149Z,54.00
2019-06-26T04:47:25.607Z,49.60
2019-06-26T04:52:32.541Z,46.60
2019-06-26T04:57:39.180Z,43.80
2019-06-26T05:02:45.819Z,45.40
2019-06-26T05:07:53.812Z,52.10
2019-06-26T05:13:00.750Z,59.10
2019-06-26T05:18:07.490Z,61.00
2019-06-26T05:23:14.118Z,63.80
2019-06-26T05:28:20.607Z,61.30
2019-06-26T05:33:27.167Z,61.70
2019-06-26T05:38:33.638Z,60.80
2019-06-26T05:43:40.347Z,61.20
2019-06-26T05:48:46.952Z,59.80
2019-06-26T05:53:53.347Z,58.60
2019-06-26T05:58:59.879Z,59.30
2019-06-26T06:04:06.494Z,57.40
2019-06-26T06:09:13.119Z,57.70
2019-06-26T06:14:19.594Z,57.20
2019-06-26T06:19:26.114Z,55.10
2019-06-26T06:24:32.731Z,55.20
2019-06-26T06:29:39.413Z,57.10
2019-06-26T06:34:45.974Z,55.10
2019-06-26T06:39:52.638Z,52.10
2019-06-26T06:45:02.430Z,53.90
2019-06-26T06:50:09.091Z,53.40
2019-06-26T06:55:15.810Z,53.00
2019-06-26T07:00:23.676Z,49.80
2019-06-26T07:05:30.183Z,50.40
2019-06-26T07:10:36.774Z,49.00
2019-06-26T07:15:43.320Z,50.20
2019-06-26T07:20:50.042Z,49.90
2019-06-26T07:25:56.599Z,49.80
2019-06-26T07:31:03.198Z,49.40
2019-06-26T07:36:09.815Z,49.20
2019-06-26T07:41:16.286Z,49.90
2019-06-26T07:46:22.924Z,48.80
2019-06-26T07:51:29.522Z,49.40
2019-06-26T07:56:36.254Z,47.20
2019-06-26T08:01:42.814Z,48.50
2019-06-26T08:06:49.442Z,47.90
2019-06-26T08:11:56.017Z,48.10
2019-06-26T08:17:02.705Z,47.50
2019-06-26T08:22:09.411Z,47.50
2019-06-26T08:27:15.953Z,44.70
2019-06-26T08:32:25.855Z,46.40
2019-06-26T08:37:30.665Z,46.40
2019-06-26T08:42:45.720Z,45.30
2019-06-26T08:47:52.208Z,44.90
2019-06-26T08:52:58.832Z,44.00
2019-06-26T08:58:05.655Z,41.70
2019-06-26T09:03:12.128Z,44.20
2019-06-26T09:08:19.046Z,42.10
2019-06-26T09:13:25.852Z,42.50
2019-06-26T09:18:35.827Z,38.80
2019-06-26T09:23:40.536Z,39.30
2019-06-26T09:28:47.015Z,39.30
2019-06-26T09:33:53.557Z,40.50
2019-06-26T09:39:00.220Z,38.10
2019-06-26T09:44:07.051Z,39.70
2019-06-26T09:49:13.915Z,37.40
2019-06-26T09:54:20.465Z,38.10
2019-06-26T09:59:26.853Z,37.10
2019-06-26T10:04:33.549Z,37.10
2019-06-26T10:09:40.112Z,36.20
2019-06-26T10:14:48.014Z,34.70
2019-06-26T10:19:55.031Z,33.60
2019-06-26T10:25:01.634Z,33.20
2019-06-26T10:30:10.516Z,34.00
2019-06-26T10:35:18.529Z,34.70
2019-06-26T10:40:25.205Z,35.30
2019-06-26T10:45:35.185Z,35.80
2019-06-26T10:50:49.332Z,35.60
2019-06-26T10:55:48.449Z,34.80
2019-06-26T11:00:55.163Z,34.90
2019-06-26T11:06:01.621Z,34.70
2019-06-26T11:11:08.266Z,35.30
2019-06-26T11:16:14.863Z,35.10
2019-06-26T11:21:21.495Z,34.60
2019-06-26T11:26:28.141Z,33.20
2019-06-26T11:31:34.804Z,34.20
2019-06-26T11:36:41.358Z,32.70
2019-06-26T11:41:47.897Z,32.40
2019-06-26T11:46:55.070Z,33.10
2019-06-26T11:52:01.620Z,32.30
2019-06-26T11:57:08.287Z,32.50
2019-06-26T12:02:14.965Z,33.00
2019-06-26T12:07:22.975Z,32.70
2019-06-26T12:12:29.554Z,33.40
2019-06-26T12:17:36.025Z,33.90
2019-06-26T12:22:42.528Z,31.40
2019-06-26T12:27:49.363Z,31.60
2019-06-26T12:33:02.865Z,32.20
2019-06-26T12:38:04.081Z,34.20
2019-06-26T12:43:10.711Z,34.50
2019-06-26T12:48:17.223Z,32.60
2019-06-26T12:53:24.075Z,30.70
2019-06-26T12:58:30.579Z,31.20
2019-06-26T13:03:37.107Z,29.70
2019-06-26T13:08:43.654Z,30.00
2019-06-26T13:14:01.922Z,29.40
2019-06-26T13:18:58.659Z,31.40
2019-06-26T13:24:05.316Z,30.70
2019-06-26T13:29:11.763Z,30.00
2019-06-26T13:34:18.360Z,31.50
2019-06-26T13:39:24.926Z,31.00
2019-06-26T13:44:31.499Z,31.80
2019-06-26T13:49:38.039Z,30.70
2019-06-26T13:54:44.562Z,31.70
2019-06-26T13:59:51.244Z,31.50
2019-06-26T14:04:58.765Z,31.20
2019-06-26T14:10:05.475Z,31.70
2019-06-26T14:15:13.619Z,32.60
2019-06-26T14:20:21.253Z,32.00
2019-06-26T14:25:28.027Z,30.30
2019-06-26T14:30:34.655Z,31.90
2019-06-26T14:35:41.282Z,32.70
2019-06-26T14:40:47.867Z,33.00
2019-06-26T14:45:54.461Z,31.60
2019-06-26T14:51:00.980Z,30.80
2019-06-26T14:56:07.630Z,31.70
2019-06-26T15:01:14.294Z,33.30
2019-06-26T15:06:20.923Z,34.50
2019-06-26T15:11:27.498Z,33.70
2019-06-26T15:16:34.136Z,34.50
2019-06-26T15:21:48.661Z,35.70
2019-06-26T15:26:49.102Z,34.50
2019-06-26T15:31:55.582Z,35.60
2019-06-26T15:37:02.141Z,35.90
2019-06-26T15:42:08.778Z,36.20
2019-06-26T15:47:15.561Z,35.70
2019-06-26T15:52:22.141Z,35.30
2019-06-26T15:57:28.623Z,36.90
2019-06-26T16:02:43.243Z,36.60
2019-06-26T16:07:50.031Z,36.60
2019-06-26T16:12:56.789Z,34.10
2019-06-26T16:18:09.004Z,33.50
2019-06-26T16:23:15.739Z,36.30
2019-06-26T16:28:22.597Z,35.90
2019-06-26T16:33:29.227Z,34.30
2019-06-26T16:38:35.876Z,35.50
2019-06-26T16:43:42.587Z,34.90
2019-06-26T16:48:49.133Z,37.10
2019-06-26T16:53:55.913Z,37.60
2019-06-26T16:59:02.610Z,35.70
2019-06-26T17:04:09.124Z,38.10
2019-06-26T17:09:15.739Z,37.60
2019-06-26T17:14:22.330Z,37.60
2019-06-26T17:19:28.886Z,38.30
2019-06-26T17:24:36.467Z,39.50
2019-06-26T17:29:43.252Z,39.70
2019-06-26T17:34:49.828Z,40.20
2019-06-26T17:39:56.431Z,41.60
2019-06-26T17:45:03.041Z,41.60
2019-06-26T17:50:10.443Z,42.80
2019-06-26T17:55:17.287Z,44.10
2019-06-26T18:00:29.169Z,44.50
2019-06-26T18:05:35.798Z,44.30
2019-06-26T18:10:43.358Z,45.40
2019-06-26T18:15:49.917Z,47.20
2019-06-26T18:20:56.364Z,48.00
2019-06-26T18:26:13.166Z,48.10
2019-06-26T18:31:11.460Z,49.10
2019-06-26T18:36:18.015Z,49.70
2019-06-26T18:41:26.396Z,50.20
2019-06-26T18:46:33.072Z,52.50
2019-06-26T18:51:39.765Z,51.30
2019-06-26T18:56:47.511Z,51.90
2019-06-26T19:01:56.129Z,52.30
2019-06-26T19:07:02.744Z,54.00
2019-06-26T19:12:10.447Z,52.70
2019-06-26T19:17:17.340Z,53.20
2019-06-26T19:22:26.662Z,53.70
2019-06-26T19:27:34.292Z,53.70
2019-06-26T19:32:40.864Z,54.50
2019-06-26T19:37:49.986Z,55.50
2019-06-26T19:42:56.573Z,56.20
2019-06-26T19:48:06.606Z,56.70
2019-06-26T19:53:13.254Z,54.70
2019-06-26T19:58:26.297Z,55.10
2019-06-26T20:03:28.165Z,55.70
2019-06-26T20:08:34.639Z,56.50
2019-06-26T20:13:41.182Z,57.70
2019-06-26T20:18:47.752Z,60.00
2019-06-26T20:23:54.331Z,59.00
2019-06-26T20:29:00.989Z,58.70
2019-06-26T20:34:07.622Z,59.10
2019-06-26T20:39:14.110Z,59.20
2019-06-26T20:44:20.736Z,58.90
2019-06-26T20:49:27.266Z,59.60
2019-06-26T20:54:33.692Z,60.50
2019-06-26T20:59:40.288Z,60.50
2019-06-26T21:04:46.860Z,60.40
2019-06-26T21:09:54.488Z,60.30
2019-06-26T21:15:00.907Z,60.60
2019-06-26T21:20:09.137Z,58.40
2019-06-26T21:25:18.991Z,59.40
2019-06-26T21:30:27.219Z,60.70
2019-06-26T21:35:33.779Z,60.30
2019-06-26T21:40:40.268Z,59.50
2019-06-26T21:45:48.043Z,60.20
2019-06-26T21:50:54.686Z,60.40
2019-06-26T21:56:01.170Z,60.90
2019-06-26T22:01:25.443Z,61.20
2019-06-26T22:06:50.233Z,58.70
2019-06-26T22:12:14.463Z,60.70
2019-06-26T22:17:37.855Z,60.00
2019-06-26T22:22:44.937Z,61.30
2019-06-26T22:27:51.510Z,62.30
2019-06-26T22:32:58.117Z,61.60
2019-06-26T22:38:04.837Z,61.20
2019-06-26T22:43:11.527Z,63.20
2019-06-26T22:48:18.217Z,62.50
2019-06-26T22:53:24.805Z,64.20
2019-06-26T22:58:31.275Z,65.30
2019-06-26T23:03:37.880Z,66.00
2019-06-26T23:08:44.360Z,66.00
2019-06-26T23:13:51.025Z,65.80
2019-06-26T23:18:57.579Z,65.20
2019-06-26T23:24:04.079Z,65.20
2019-06-26T23:29:10.622Z,65.10
2019-06-26T23:34:17.297Z,65.50
2019-06-26T23:39:23.954Z,64.30
2019-06-26T23:44:30.454Z,64.10
2019-06-26T23:49:37.179Z,63.70
2019-06-26T23:54:43.603Z,65.60
2019-06-26T23:59:50.076Z,66.20
